Portada
METAR-TAF:

METAR-TAF

Aeroports :

Nouméa La Tontouta, Nova Caledònia

latitud: 22-01S, longitud: 166-13E, altitud: 16 m

Observació

L'informe es va fer fa 7 hores i 47 minuts, a les 15:30 UTC
Vent 2 kt del Nord-Oest
Temperatura 21°C
Humitat 94%
Pressió 1016 hPa
Visibilitat 10 km o més
Cel ennuvolat a una alçada de 7000 ft
Cel cobert a una alçada de 8800 ft

METAR: NWWW 031530Z AUTO 31002KT 9999 BKN070 OVC088 21/20 Q1016 NOSIG

Hora: 10:17 (23:17 UTC)

Pronòstic

L'informe es va fer fa 4 hores i 52 minuts, a les 18:25 UTC
Pronòstic vàlid del 03 a les 18 UTC al 04 a les 18 UTC
Vent 2 kt amb direcció variable
Visibilitat 10 km o més
Escasses núvols a una alçada de 4000 ft
Probabilitat 40% :
Temporalment
l' 03 a les 18 UTC al 03 a les 21 UTC
Visibilitat: 2000 m
boirina

TAF: NWWW 031825Z 0318/0418 VRB02KT 9999 FEW040 PROB40 TEMPO 0318/0321 2000 BR

Observacions i pronòstics meteorològics de més de 4000 aeroports (METAR i TAF).

Les estacions disponibles són els punts grocs i vermells al mapa.

Posi el ratolí al punt desitjat per veure el nom de l'estació.

Feu clic per veure les observacions i els pronòstics meteorològics.

Per canviar el mapa: feu clic els botons verds amb una creu de color negre per apropar; al botó verd amb un guió per allunyar la imatge; o en les fletxes verdes per a mapes adjacents.


METAR-TAF: